This is the latest recevied weather packets stored in our database for station/object G7UKK-10. If no packets are shown the sender has not sent any weather packets the latest 1 day(s).
| Time | Temp. | Humidity | Pressure | Rain* | Wind** | Luminosity | Snow |
|---|---|---|---|---|---|---|---|
| 1836274674 | 16.11° C | 88% | 1017 hPa | 0 mm | 0.89 m/s, 230° | 0 W/m² | - |
| 1778050517 | 6.11° C | 78% | 1017.3 hPa | 0 mm | 0.45 m/s, 100° | - | - |
| 1778049617 | 5.56° C | 78% | 1017.2 hPa | 0 mm | 0.89 m/s, 94° | - | - |
| 1778048717 | 5.56° C | 79% | 1017.3 hPa | 0 mm | 0.89 m/s, 89° | - | - |
| 1778047817 | 4.44° C | 80% | 1017.2 hPa | 0 mm | 1.34 m/s, 351° | - | - |
| 1778046917 | 3.89° C | 82% | 1017.3 hPa | 0 mm | 1.34 m/s, 7° | - | - |
| 1778046017 | 3.33° C | 83% | 1017.3 hPa | 0 mm | 0.89 m/s, 33° | - | - |
| 1778045117 | 3.33° C | 83% | 1017.3 hPa | 0 mm | 0.89 m/s, 37° | - | - |
| 1778044217 | 2.78° C | 84% | 1017.1 hPa | 0 mm | 0.89 m/s, 354° | - | - |
| 1778043317 | 2.78° C | 84% | 1017.3 hPa | 0 mm | 1.34 m/s, 21° | - | - |
| 1778042417 | 3.33° C | 84% | 1017.1 hPa | 0 mm | 1.79 m/s, 360° | - | - |
| 1778041517 | 3.33° C | 85% | 1017.2 hPa | 0 mm | 1.79 m/s, 7° | - | - |
| 1778040617 | 3.33° C | 85% | 1017 hPa | 0 mm | 1.34 m/s, 15° | - | - |
| 1778039717 | 3.33° C | 86% | 1017.2 hPa | 0 mm | 0.89 m/s, 117° | - | - |
| 1778038817 | 3.33° C | 86% | 1017.3 hPa | 0 mm | 1.34 m/s, 88° | - | - |
| 1778037917 | 3.89° C | 86% | 1017.2 hPa | 0 mm | 1.79 m/s, 342° | - | - |
| 1778037017 | 3.89° C | 86% | 1017.5 hPa | 0 mm | 0.89 m/s, 17° | - | - |
| 1778036117 | 3.89° C | 86% | 1017.3 hPa | 0 mm | 0.89 m/s, 342° | - | - |
| 1778035217 | 4.44° C | 85% | 1017.3 hPa | 0 mm | 0.89 m/s, 35° | - | - |
| 1778034317 | 4.44° C | 85% | 1017.3 hPa | 0 mm | 0 m/s | - | - |
| 1778033417 | 4.44° C | 84% | 1017.2 hPa | 0 mm | 0 m/s | - | - |
| 1778032517 | 5° C | 83% | 1017.2 hPa | 0 mm | 0 m/s | - | - |
| 1778031617 | 5.56° C | 82% | 1017.5 hPa | 0 mm | 0 m/s | - | - |
| 1778030717 | 5.56° C | 82% | 1017.5 hPa | 0 mm | 0 m/s | - | - |
| 1778029817 | 5.56° C | 82% | 1017.3 hPa | 0 mm | 0 m/s | - | - |
* Rain latest hour (hover to see other rain measurements)
** Current wind speed in m/s (hover to see current wind gust speed)